Acme, WA

6:30 PM PDT on April 25, 2015 (GMT -0700)
Sudden Valley/Lake Whatcom | | Change Station
CLOSE
Current Station
Personal Weather Station
Location: Bellingham, WA
Elevation: 648 ft
Nearby Weather Stations

Elev 648 ft 48.70 °N, 122.32 °W | Updated 4 seconds ago

Partly Cloudy
Partly Cloudy
46.8 °F
Feels Like 47 °F
N
0.0
Wind Variable Wind from SW
Gusts 2.0 mph

Today
High -- | Low -- °F
--% Chance of Precip.
Yesterday
High -- | Low -- °F
Precip. -- in
5:59 AM 8:14 PM
Waxing Crescent, 51% visible
Pressure 30.04 in
Visibility 10.0 miles
Clouds Clear
Windchill 47 °F
Dew Point 46 °F
Humidity 97%
Rainfall 0.09 in
Snow Depth Not available.
UV 2 out of 12
Pollen 7.30 out of 12
Air Quality Not available.
Flu Activity Regional
METAR KBLI 260053Z 00000KT 10SM CLR 12/03 A3002 RMK AO2 SLP173 T01170028

More Conditions Fewer Conditions

Pressure 30.04 in
Visibility 10.0 miles
Clouds Clear
Windchill 47 °F
Dew Point 46 °F
Humidity 97%
Rainfall 0.09 in
Snow Depth Not available.
UV 2 out of 12
Pollen 7.30 out of 12
Air Quality Not available.
Flu Activity Regional
METAR KBLI 260053Z 00000KT 10SM CLR 12/03 A3002 RMK AO2 SLP173 T01170028

More Conditions Fewer Conditions

10-Day Weather Forecast

Almanac

Astronomy

Apr. 25, 2015 Rise Set
Actual Time
Civil Twilight
Nautical Twilight
Astronomical Twilight
Moon
Length of Visible Light
Length of Day
Tomorrow will be .
, % of the Moon is Illuminated

Today's Extremes

State Highs State Lows

Community

WunderPhotos

Upload Photos

1,816,890 photos uploaded!

WunderBlogs® & News

Nearby

Air Quality

  Air Quality AQ Index Pollutant
Not available.

Snow Depth

Station Depth Elevation

Earthquake Activity

City Distance Mag. Time & Date
Minimum magnitude displayed is 2.5.

Coastal Water Temperatures

Place Temperature

Stations

Nearby Weather Stations

Station Location Temp. Windchill Dew Point Humidity Wind Precip. Elev Updated Type